Time;durP1;ratioP1;P1;durP2;ratioP2;P2;SDS_P1;SDS_P2;PMS_P1;PMS_P2;Temp;Humidity;BMP_temperature;BMP_pressure;BME280_temperature;BME280_humidity;BME280_pressure;Samples;Min_cycle;Max_cycle;Signal;HPM_P1;HPM_P2
2021/05/30 00:04:25;;;;;;;7.57;6.80;;;;;;;13.53;58.06;101159.94;10291907;28;20385;-57
2021/05/30 00:09:26;;;;;;;7.43;6.72;;;;;;;13.45;58.72;101157.88;10297107;28;20452;-59
2021/05/30 00:14:28;;;;;;;8.15;7.35;;;;;;;13.49;58.36;101166.50;10291697;28;20159;-56
2021/05/30 00:19:29;;;;;;;9.20;7.63;;;;;;;13.48;58.74;101164.78;10287877;28;20109;-58
2021/05/30 00:24:31;;;;;;;8.88;7.50;;;;;;;13.33;58.57;101140.94;10289140;28;20141;-56
2021/05/30 00:29:32;;;;;;;9.43;8.25;;;;;;;13.40;58.19;101158.22;10291685;28;20073;-58
2021/05/30 00:34:34;;;;;;;8.85;7.68;;;;;;;13.32;58.72;101141.06;10294119;28;20085;-56
2021/05/30 00:39:35;;;;;;;8.98;7.93;;;;;;;13.34;58.65;101148.00;10293523;28;20094;-60
2021/05/30 00:44:37;;;;;;;8.05;7.18;;;;;;;13.23;59.00;101167.53;10293972;28;20070;-59
2021/05/30 00:49:38;;;;;;;9.10;7.25;;;;;;;13.24;59.22;101157.66;10275028;28;20058;-55
2021/05/30 00:54:40;;;;;;;8.80;7.90;;;;;;;13.11;59.09;101156.94;10290135;28;20133;-56
2021/05/30 00:59:42;;;;;;;10.32;8.30;;;;;;;13.12;59.44;101153.28;10295402;28;20074;-55
2021/05/30 01:04:46;;;;;;;12.15;8.82;;;;;;;13.16;59.31;101168.13;10297962;28;20047;-56
2021/05/30 01:09:48;;;;;;;9.05;8.15;;;;;;;13.03;59.64;101160.19;10298787;28;20129;-59
2021/05/30 01:14:49;;;;;;;8.68;7.47;;;;;;;13.00;59.68;101166.63;10294684;28;20129;-57
2021/05/30 01:19:55;;;;;;;9.35;8.43;;;;;;;12.90;60.09;101171.81;10285222;28;20141;-56
2021/05/30 01:24:56;;;;;;;8.63;7.82;;;;;;;12.95;59.96;101170.63;10296425;28;20054;-55
2021/05/30 01:29:58;;;;;;;10.60;9.27;;;;;;;12.77;60.44;101160.34;10300285;28;20066;-54
2021/05/30 01:35:00;;;;;;;9.80;8.40;;;;;;;12.78;60.68;101177.25;10302099;28;20156;-54
2021/05/30 01:40:02;;;;;;;9.65;8.18;;;;;;;12.71;60.86;101176.84;10300671;28;20073;-57
2021/05/30 01:45:05;;;;;;;10.55;8.43;;;;;;;12.69;61.09;101174.28;10284638;28;20065;-57
2021/05/30 01:50:10;;;;;;;10.85;7.80;;;;;;;12.67;60.79;101180.69;10302136;28;20488;-56
2021/05/30 01:55:20;;;;;;;10.70;9.27;;;;;;;12.58;61.22;101176.03;10299017;28;20548;-55
2021/05/30 02:00:23;;;;;;;10.52;8.80;;;;;;;12.49;61.42;101172.22;10298121;28;20132;-54
2021/05/30 02:05:24;;;;;;;10.20;9.15;;;;;;;12.36;62.02;101175.81;10297297;28;20121;-56
2021/05/30 02:10:27;;;;;;;10.43;8.38;;;;;;;12.33;62.29;101173.38;10295408;28;20054;-58
2021/05/30 02:15:28;;;;;;;11.38;8.52;;;;;;;12.30;62.29;101178.94;10292347;28;20077;-57
2021/05/30 02:20:40;;;;;;;10.63;9.63;;;;;;;12.31;62.66;101175.31;10294578;28;20058;-56
2021/05/30 02:25:42;;;;;;;9.38;8.38;;;;;;;12.19;62.51;101165.53;10292794;28;20709;-56
2021/05/30 02:30:43;;;;;;;10.32;9.15;;;;;;;12.25;62.68;101181.09;10286133;28;20070;-57
2021/05/30 02:35:45;;;;;;;11.07;8.35;;;;;;;12.23;62.63;101183.00;10292419;28;20436;-54
2021/05/30 02:40:46;;;;;;;11.27;9.57;;;;;;;12.20;62.74;101183.22;10285868;28;20144;-59
2021/05/30 02:45:48;;;;;;;11.95;9.77;;;;;;;12.17;62.96;101178.13;10293155;28;20082;-61
2021/05/30 02:50:58;;;;;;;13.60;8.77;;;;;;;12.18;63.06;101182.50;10291448;28;20545;-55
2021/05/30 02:56:02;;;;;;;11.15;8.93;;;;;;;12.12;63.12;101178.44;10274068;28;20136;-57
2021/05/30 03:01:03;;;;;;;9.82;8.32;;;;;;;12.08;63.20;101176.13;10289105;28;20491;-58
2021/05/30 03:06:05;;;;;;;11.32;9.30;;;;;;;12.09;63.10;101186.69;10295579;28;20058;-56
2021/05/30 03:11:07;;;;;;;11.63;9.98;;;;;;;12.00;63.59;101182.00;10292848;28;20128;-55
2021/05/30 03:16:08;;;;;;;10.23;9.13;;;;;;;11.98;63.39;101183.91;10290872;28;20144;-56
2021/05/30 03:21:10;;;;;;;11.00;9.00;;;;;;;11.99;63.38;101181.16;10287751;28;20113;-60
2021/05/30 03:26:11;;;;;;;10.57;9.43;;;;;;;11.96;63.84;101186.69;10287969;28;20101;-56
2021/05/30 03:31:13;;;;;;;10.25;8.82;;;;;;;11.96;63.94;101185.84;10279623;28;20133;-54
2021/05/30 03:36:19;;;;;;;12.80;9.20;;;;;;;11.95;63.92;101186.81;10287474;28;20046;-55
2021/05/30 03:41:24;;;;;;;11.95;9.80;;;;;;;11.81;63.94;101187.75;10296710;28;20080;-56
2021/05/30 03:46:26;;;;;;;12.38;9.10;;;;;;;11.85;64.22;101194.59;10289122;28;20082;-57
2021/05/30 03:51:28;;;;;;;11.20;9.18;;;;;;;11.87;64.28;101190.00;10288166;28;20085;-57
2021/05/30 03:56:29;;;;;;;10.48;9.35;;;;;;;11.95;64.28;101195.69;10292733;28;20085;-60
2021/05/30 04:01:31;;;;;;;11.95;9.43;;;;;;;11.95;64.14;101190.34;10283754;28;20060;-58
2021/05/30 04:06:32;;;;;;;11.63;9.38;;;;;;;11.98;64.51;101195.47;10284963;28;20109;-57
2021/05/30 04:11:34;;;;;;;10.48;9.43;;;;;;;12.01;64.20;101189.06;10286398;28;20551;-58
2021/05/30 04:16:36;;;;;;;10.48;9.10;;;;;;;12.02;64.27;101196.09;10284386;28;20422;-58
2021/05/30 04:21:38;;;;;;;13.38;9.80;;;;;;;12.01;64.33;101189.91;10277806;28;20105;-57
2021/05/30 04:26:39;;;;;;;11.38;9.27;;;;;;;12.06;64.40;101188.72;10285884;28;20074;-60
2021/05/30 04:31:40;;;;;;;12.15;9.98;;;;;;;12.07;64.10;101188.63;10279713;28;20073;-56
2021/05/30 04:36:42;;;;;;;12.63;9.05;;;;;;;12.13;64.22;101181.97;10272293;28;20488;-56
2021/05/30 04:41:43;;;;;;;11.02;9.45;;;;;;;12.15;63.68;101183.56;10287144;28;20093;-60
2021/05/30 04:46:45;;;;;;;10.07;8.60;;;;;;;12.22;64.14;101197.34;10299865;28;20491;-56
2021/05/30 04:51:46;;;;;;;11.43;9.10;;;;;;;12.27;64.26;101189.84;10301227;28;20112;-59
2021/05/30 04:56:47;;;;;;;10.48;7.97;;;;;;;12.34;63.36;101196.44;10297430;28;20054;-61
2021/05/30 05:01:50;;;;;;;10.63;8.32;;;;;;;12.43;64.05;101194.03;10302550;28;20054;-58
2021/05/30 05:06:51;;;;;;;13.27;8.65;;;;;;;12.45;63.88;101181.44;10295840;28;20138;-56
2021/05/30 05:11:53;;;;;;;11.05;8.82;;;;;;;12.61;63.61;101197.19;10301910;28;20046;-60
2021/05/30 05:16:54;;;;;;;11.15;8.73;;;;;;;12.54;63.49;101192.28;10283374;28;20080;-61
2021/05/30 05:21:56;;;;;;;10.48;8.75;;;;;;;12.67;63.56;101210.06;10286524;28;20078;-56
2021/05/30 05:26:57;;;;;;;11.57;10.18;;;;;;;12.78;62.82;101211.97;10289612;28;20756;-58
2021/05/30 05:31:59;;;;;;;12.30;8.93;;;;;;;12.87;62.82;101219.28;10292384;28;20050;-56
2021/05/30 05:37:01;;;;;;;11.98;8.93;;;;;;;12.96;62.01;101220.44;10290185;28;20104;-57
2021/05/30 05:42:03;;;;;;;11.48;9.10;;;;;;;12.93;63.13;101213.50;10289981;28;20050;-54
2021/05/30 05:47:05;;;;;;;9.70;8.00;;;;;;;13.12;62.72;101217.44;10289988;28;20133;-57
2021/05/30 05:52:07;;;;;;;9.23;7.93;;;;;;;12.98;62.21;101205.97;10287003;28;20050;-56
2021/05/30 05:57:20;;;;;;;10.60;7.63;;;;;;;13.24;62.71;101227.19;10288766;28;20050;-58
2021/05/30 06:02:22;;;;;;;9.93;7.80;;;;;;;13.43;61.12;101216.81;10289149;28;20100;-56
2021/05/30 06:07:24;;;;;;;8.32;7.50;;;;;;;13.38;60.64;101186.91;10288020;28;20104;-59
2021/05/30 06:12:25;;;;;;;12.38;6.75;;;;;;;13.75;60.21;101207.25;10288615;28;20074;-59
2021/05/30 06:17:26;;;;;;;9.70;7.63;;;;;;;13.86;59.48;101222.47;10287591;28;20079;-60
2021/05/30 06:22:28;;;;;;;9.10;6.60;;;;;;;13.96;59.15;101224.28;10289916;28;20096;-55
2021/05/30 06:27:29;;;;;;;7.43;6.30;;;;;;;14.09;58.55;101218.78;10289546;28;20050;-55
2021/05/30 06:32:31;;;;;;;6.40;5.78;;;;;;;14.15;59.36;101229.00;10290411;28;20066;-59
2021/05/30 06:37:33;;;;;;;7.20;6.13;;;;;;;14.30;58.10;101232.28;10291378;28;20046;-58
2021/05/30 06:42:34;;;;;;;7.07;6.30;;;;;;;14.56;57.60;101228.47;10294151;28;20120;-58
2021/05/30 06:47:36;;;;;;;7.43;6.10;;;;;;;14.77;57.52;101224.06;10295876;28;20053;-57
2021/05/30 06:52:38;;;;;;;7.43;5.82;;;;;;;14.92;56.66;101221.94;10295398;28;20165;-57
2021/05/30 06:57:40;;;;;;;9.10;5.60;;;;;;;15.16;56.41;101223.50;10296662;28;20136;-57
2021/05/30 07:02:42;;;;;;;7.18;5.50;;;;;;;15.42;55.46;101221.31;10296308;28;20475;-56
2021/05/30 07:07:43;;;;;;;7.65;5.90;;;;;;;15.57;55.59;101227.19;10296332;28;20719;-55
2021/05/30 07:12:46;;;;;;;7.63;6.32;;;;;;;15.59;55.61;101216.31;10295895;28;20054;-59
2021/05/30 07:17:47;;;;;;;7.97;5.53;;;;;;;15.86;54.84;101216.63;10294370;28;20081;-54
2021/05/30 07:22:49;;;;;;;7.38;5.55;;;;;;;16.09;54.25;101227.16;10281665;28;20046;-56
2021/05/30 07:27:51;;;;;;;7.30;6.45;;;;;;;15.90;54.17;101217.22;10293984;28;20112;-55
2021/05/30 07:32:53;;;;;;;6.97;6.28;;;;;;;15.97;54.33;101206.78;10293832;28;20137;-59
2021/05/30 07:37:55;;;;;;;6.97;5.85;;;;;;;16.41;54.15;101210.88;10295317;28;20136;-60
2021/05/30 07:42:56;;;;;;;5.78;5.15;;;;;;;16.73;53.26;101214.31;10295976;28;20605;-55
2021/05/30 07:47:58;;;;;;;4.53;3.72;;;;;;;17.11;53.66;101216.19;10287254;28;20120;-58
2021/05/30 07:53:00;;;;;;;5.95;5.00;;;;;;;17.27;50.48;101220.97;10283663;28;20130;-52
2021/05/30 07:58:02;;;;;;;5.45;4.22;;;;;;;17.46;50.33;101214.72;10270423;28;20039;-56
2021/05/30 08:03:04;;;;;;;6.28;4.45;;;;;;;17.65;50.46;101221.91;10281130;28;20058;-57
2021/05/30 08:08:06;;;;;;;5.40;4.53;;;;;;;17.73;49.56;101206.84;10282708;28;20120;-59
2021/05/30 08:13:07;;;;;;;5.40;4.72;;;;;;;17.80;50.45;101207.94;10303165;28;20046;-56
2021/05/30 08:18:09;;;;;;;6.03;4.15;;;;;;;17.70;49.63;101196.34;10293835;28;20069;-58
2021/05/30 08:23:10;;;;;;;4.97;3.90;;;;;;;18.18;49.60;101198.88;10307939;28;20046;-58
2021/05/30 08:28:11;;;;;;;6.53;5.22;;;;;;;18.42;48.66;101202.84;10294213;28;20552;-60
2021/05/30 08:33:13;;;;;;;5.63;4.65;;;;;;;18.21;47.80;101195.03;10305948;28;20110;-59
2021/05/30 08:38:14;;;;;;;5.40;4.63;;;;;;;18.12;48.92;101195.91;10303558;28;20074;-57
2021/05/30 08:43:30;;;;;;;5.95;5.28;;;;;;;18.53;46.89;101199.09;10304620;28;20042;-57
2021/05/30 08:48:31;;;;;;;5.28;4.35;;;;;;;18.56;47.90;101188.00;10303120;28;20132;-57
2021/05/30 08:53:37;;;;;;;5.82;4.30;;;;;;;18.93;47.29;101188.88;10300883;28;20058;-57
2021/05/30 08:58:42;;;;;;;5.68;4.38;;;;;;;19.12;44.60;101193.25;10284753;28;20054;-59
2021/05/30 09:04:04;;;;;;;4.72;3.95;;;;;;;19.17;45.70;101188.22;10289121;28;20109;-62
2021/05/30 09:09:10;;;;;;;3.55;3.22;;;;;;;19.59;44.53;101191.03;10300847;28;20058;-62
2021/05/30 09:14:19;;;;;;;4.72;4.28;;;;;;;19.85;43.54;101181.25;10309008;28;20515;-55
2021/05/30 09:19:51;;;;;;;3.97;3.58;;;;;;;19.88;43.80;101180.94;10307881;28;20208;-56
2021/05/30 09:25:10;;;;;;;4.53;3.55;;;;;;;20.27;43.68;101180.38;10272212;28;20070;-58
2021/05/30 09:30:19;;;;;;;4.10;3.40;;;;;;;20.71;43.23;101165.78;10299935;28;20152;-57
2021/05/30 09:35:26;;;;;;;4.10;3.70;;;;;;;21.14;41.90;101170.00;10301877;28;20148;-58
2021/05/30 09:40:47;;;;;;;5.28;3.55;;;;;;;21.34;38.99;101156.94;10302234;28;20117;-56
2021/05/30 09:45:56;;;;;;;3.53;2.90;;;;;;;21.67;40.16;101161.47;10298805;28;20050;-58
2021/05/30 09:51:07;;;;;;;3.83;3.28;;;;;;;21.66;40.38;101152.50;10301307;28;20125;-58
2021/05/30 09:56:49;;;;;;;5.30;4.10;;;;;;;21.69;40.31;101156.72;10299905;28;20424;-59
2021/05/30 10:01:59;;;;;;;2.88;2.58;;;;;;;22.07;38.31;101140.63;10057576;29;20869;-56
2021/05/30 10:07:03;;;;;;;4.18;3.60;;;;;;;22.20;38.67;101149.03;10255264;28;20462;-59
2021/05/30 10:12:05;;;;;;;3.28;2.70;;;;;;;22.57;37.63;101144.75;10285324;28;20109;-57
2021/05/30 10:17:07;;;;;;;2.92;2.63;;;;;;;22.85;37.18;101146.03;10303272;28;20072;-59
2021/05/30 10:22:09;;;;;;;2.97;2.70;;;;;;;23.09;37.20;101139.56;10285202;28;20973;-55
2021/05/30 10:27:15;;;;;;;3.17;2.70;;;;;;;23.53;34.84;101121.66;10302224;28;20066;-59
2021/05/30 10:32:18;;;;;;;4.07;2.03;;;;;;;23.02;34.72;101130.47;10302360;28;20795;-55
2021/05/30 10:37:24;;;;;;;3.45;2.13;;;;;;;24.05;33.07;101131.56;10300843;28;20061;-58
2021/05/30 10:42:26;;;;;;;2.92;2.25;;;;;;;23.63;34.01;101123.03;10299597;28;20043;-59
2021/05/30 10:47:43;;;;;;;3.88;2.60;;;;;;;24.28;32.07;101125.94;10301946;28;20077;-56
2021/05/30 10:52:48;;;;;;;2.80;1.90;;;;;;;24.79;30.94;101124.16;10302797;28;20057;-59
2021/05/30 10:57:50;;;;;;;2.13;1.92;;;;;;;24.64;32.16;101107.91;10300000;28;20065;-58
2021/05/30 11:03:02;;;;;;;2.63;2.00;;;;;;;24.91;31.44;101117.13;10296476;28;20070;-54
2021/05/30 11:08:03;;;;;;;2.17;1.98;;;;;;;24.59;31.07;101107.63;10287094;28;20073;-55
2021/05/30 11:13:14;;;;;;;2.85;2.20;;;;;;;25.00;31.15;101104.22;10295072;28;20161;-56
2021/05/30 11:18:19;;;;;;;4.40;2.35;;;;;;;25.28;29.37;101103.34;10285017;28;20129;-58
2021/05/30 11:23:21;;;;;;;2.05;1.92;;;;;;;25.26;29.55;101081.75;10299558;28;20054;-57
2021/05/30 11:28:27;;;;;;;2.65;1.58;;;;;;;25.33;28.38;101093.56;10289668;23;20073;-66
2021/05/30 11:33:31;;;;;;;4.35;1.90;;;;;;;24.58;27.71;101093.19;10283696;28;20102;-65
2021/05/30 11:38:40;;;;;;;2.92;1.55;;;;;;;24.48;28.18;101079.03;10280149;28;20108;-65
2021/05/30 11:44:02;;;;;;;2.00;1.50;;;;;;;24.88;27.94;101079.41;10282200;28;20054;-65
2021/05/30 11:49:06;;;;;;;1.98;1.48;;;;;;;24.75;27.59;101073.84;10283431;28;20050;-65
2021/05/30 11:54:07;;;;;;;4.32;2.08;;;;;;;24.73;28.47;101056.91;10282384;28;20073;-65
2021/05/30 11:59:09;;;;;;;2.80;2.05;;;;;;;24.84;28.29;101059.06;10282001;28;20061;-65
2021/05/30 12:04:25;;;;;;;2.13;1.70;;;;;;;25.15;27.58;101063.25;10278242;28;20057;-65
2021/05/30 12:09:42;;;;;;;2.47;1.70;;;;;;;24.68;28.28;101057.47;10271532;28;20137;-65
2021/05/30 12:14:43;;;;;;;1.73;1.23;;;;;;;24.68;27.76;101060.19;10272914;28;20472;-65
2021/05/30 12:19:46;;;;;;;1.98;1.70;;;;;;;24.57;27.04;101050.66;10270482;28;20101;-65
2021/05/30 12:24:48;;;;;;;2.63;2.00;;;;;;;24.53;28.51;101052.09;10276495;28;20154;-64
2021/05/30 12:29:55;;;;;;;4.57;2.70;;;;;;;24.65;27.61;101033.34;10274820;28;20598;-65
2021/05/30 12:34:57;;;;;;;;;;;;;;;24.66;28.19;101033.16;10279485;28;20562;-65
2021/05/30 12:39:59;;;;;;;2.70;2.17;;;;;;;24.75;28.21;101033.03;10275079;28;20001;-65
2021/05/30 12:45:08;;;;;;;3.50;2.20;;;;;;;24.49;28.47;101031.75;10280482;28;20062;-64
2021/05/30 12:50:12;;;;;;;2.72;2.10;;;;;;;24.53;27.92;101024.88;10273236;28;20134;-66
2021/05/30 12:55:17;;;;;;;2.38;1.95;;;;;;;24.23;28.50;101025.03;10278477;28;20490;-67
2021/05/30 13:00:26;;;;;;;2.65;1.83;;;;;;;24.04;29.03;101022.97;10284296;28;20074;-66
2021/05/30 13:05:32;;;;;;;3.47;1.88;;;;;;;24.26;28.90;101018.34;10282839;28;20097;-66
2021/05/30 13:10:34;;;;;;;2.42;1.63;;;;;;;24.07;28.93;100998.09;10287588;28;20066;-67
2021/05/30 13:15:44;;;;;;;2.05;1.75;;;;;;;24.14;29.45;100999.00;10287956;28;20069;-66
2021/05/30 13:20:47;;;;;;;2.03;1.80;;;;;;;23.91;30.05;101000.03;10288308;28;20054;-66
2021/05/30 13:25:50;;;;;;;4.93;1.95;;;;;;;23.89;29.83;100988.50;10279286;28;20462;-67
2021/05/30 13:31:06;;;;;;;2.50;1.98;;;;;;;23.87;28.48;100990.59;10287249;28;20132;-70
2021/05/30 13:36:23;;;;;;;3.28;2.03;;;;;;;23.98;28.69;100979.19;10282741;28;20062;-66
2021/05/30 13:41:27;;;;;;;2.35;2.00;;;;;;;23.99;29.31;100980.06;10285746;28;20113;-66
2021/05/30 13:46:29;;;;;;;3.75;2.15;;;;;;;23.98;28.31;100972.91;10282897;28;20094;-66
2021/05/30 13:51:31;;;;;;;4.07;2.00;;;;;;;23.87;29.60;100971.56;10278479;28;20066;-66
2021/05/30 13:56:32;;;;;;;2.38;1.98;;;;;;;23.78;29.86;100967.25;10286291;28;20051;-65
2021/05/30 14:01:39;;;;;;;3.38;1.98;;;;;;;23.52;28.59;100956.94;10279308;28;20053;-67
2021/05/30 14:06:45;;;;;;;2.00;1.63;;;;;;;23.36;29.25;100952.56;10284592;28;20050;-65
2021/05/30 14:11:46;;;;;;;2.40;2.20;;;;;;;23.38;30.11;100961.38;10276705;28;20046;-66
2021/05/30 14:16:48;;;;;;;2.88;1.80;;;;;;;23.18;29.95;100951.13;10280112;28;20062;-66
2021/05/30 14:21:49;;;;;;;3.97;1.98;;;;;;;23.40;29.68;100949.28;10286184;28;20065;-66
2021/05/30 14:26:52;;;;;;;2.95;1.63;;;;;;;23.39;29.06;100942.19;10283306;28;20053;-66
2021/05/30 14:31:53;;;;;;;2.58;1.48;;;;;;;23.35;30.01;100934.59;10304265;28;20743;-66
2021/05/30 14:36:55;;;;;;;3.67;2.22;;;;;;;23.21;29.95;100931.72;10293155;28;20049;-54
2021/05/30 14:41:56;;;;;;;2.88;2.15;;;;;;;23.22;29.65;100930.69;10293252;28;20199;-54
2021/05/30 14:46:58;;;;;;;3.05;1.80;;;;;;;23.24;29.87;100931.34;10307524;28;20452;-54
2021/05/30 14:51:59;;;;;;;3.20;1.65;;;;;;;23.10;30.05;100921.34;10306804;28;20049;-54
2021/05/30 14:57:01;;;;;;;3.20;1.98;;;;;;;22.88;29.49;100918.53;10306205;28;20058;-53
2021/05/30 15:02:03;;;;;;;2.65;1.70;;;;;;;22.63;30.19;100919.88;10292296;28;20133;-53
2021/05/30 15:07:04;;;;;;;2.05;1.25;;;;;;;22.63;30.14;100911.72;10309180;28;20687;-56
2021/05/30 15:12:06;;;;;;;2.10;1.80;;;;;;;22.58;29.51;100896.84;10308293;28;20086;-64
2021/05/30 15:17:08;;;;;;;3.58;1.75;;;;;;;22.41;28.65;100901.63;10280674;28;20065;-65
2021/05/30 15:22:10;;;;;;;3.15;1.63;;;;;;;22.29;29.28;100888.66;10278797;28;20744;-64
2021/05/30 15:27:11;;;;;;;1.65;1.42;;;;;;;22.32;29.93;100891.03;10288497;28;20042;-65
2021/05/30 15:32:12;;;;;;;1.67;1.50;;;;;;;22.40;30.22;100883.66;10286764;28;20452;-64
2021/05/30 15:37:14;;;;;;;2.53;1.60;;;;;;;22.18;29.56;100892.66;10287895;28;20056;-65
2021/05/30 15:42:15;;;;;;;2.78;1.60;;;;;;;22.02;29.42;100896.34;10287120;28;20129;-66
2021/05/30 15:47:17;;;;;;;2.08;1.70;;;;;;;21.96;29.64;100880.81;10291172;28;20113;-65
2021/05/30 15:52:18;;;;;;;2.15;1.90;;;;;;;21.98;29.61;100879.63;10286235;28;20133;-65
2021/05/30 15:57:20;;;;;;;3.33;1.77;;;;;;;22.02;30.32;100880.09;10276859;28;20140;-64
2021/05/30 16:02:22;;;;;;;2.17;1.65;;;;;;;22.00;29.58;100863.19;10281959;28;20074;-65
2021/05/30 16:07:24;;;;;;;3.50;1.60;;;;;;;21.93;30.00;100870.34;10273538;28;20046;-64
2021/05/30 16:12:26;;;;;;;3.38;2.42;;;;;;;21.88;30.08;100874.44;10279764;28;20074;-65
2021/05/30 16:17:27;;;;;;;1.73;1.63;;;;;;;21.88;30.25;100866.31;10274653;28;20143;-63
2021/05/30 16:22:29;;;;;;;2.13;1.88;;;;;;;21.86;30.05;100864.84;10259568;28;20054;-64
2021/05/30 16:27:31;;;;;;;4.68;2.08;;;;;;;21.89;30.39;100857.16;10252083;28;21298;-65
2021/05/30 16:32:33;;;;;;;3.95;1.83;;;;;;;21.87;30.20;100855.66;10263634;28;20128;-64
2021/05/30 16:37:34;;;;;;;2.05;1.88;;;;;;;21.83;30.32;100855.19;10260163;28;20050;-63
2021/05/30 16:42:37;;;;;;;2.93;2.00;;;;;;;21.82;31.24;100853.50;10265907;28;20948;-63
2021/05/30 16:47:38;;;;;;;3.80;1.67;;;;;;;21.84;31.14;100851.47;10291744;28;20385;-63
2021/05/30 16:52:40;;;;;;;3.13;2.15;;;;;;;21.81;31.42;100859.09;10292890;28;20687;-63
2021/05/30 16:57:43;;;;;;;2.00;1.60;;;;;;;21.72;30.67;100847.50;10287475;28;20543;-64
2021/05/30 17:02:44;;;;;;;2.42;1.67;;;;;;;21.66;29.81;100856.34;10289932;28;20140;-63
2021/05/30 17:07:52;;;;;;;2.58;1.40;;;;;;;21.53;29.87;100843.44;10288850;28;20124;-63
2021/05/30 17:12:54;;;;;;;1.75;1.40;;;;;;;21.50;30.17;100846.50;10292257;28;20137;-64
2021/05/30 17:17:55;;;;;;;3.30;2.10;;;;;;;21.41;30.43;100840.28;10295114;28;20128;-62
2021/05/30 17:22:57;;;;;;;2.78;1.42;;;;;;;21.40;30.45;100856.69;10294011;28;20472;-62
2021/05/30 17:27:59;;;;;;;4.68;1.52;;;;;;;21.34;30.96;100850.97;10271850;28;20039;-64
2021/05/30 17:33:01;;;;;;;3.17;1.60;;;;;;;21.28;31.02;100857.09;10273285;23;20593;-60
2021/05/30 17:38:03;;;;;;;2.58;1.60;;;;;;;21.19;31.12;100853.59;10268477;28;20050;-60
2021/05/30 17:43:05;;;;;;;1.80;1.47;;;;;;;21.12;31.08;100847.22;10281187;28;20128;-58
2021/05/30 17:48:06;;;;;;;3.17;1.55;;;;;;;21.07;31.02;100846.06;10259768;28;20141;-57
2021/05/30 17:53:10;;;;;;;3.85;1.88;;;;;;;20.92;31.31;100846.81;10258399;28;20503;-59
2021/05/30 17:58:12;;;;;;;3.13;2.10;;;;;;;20.86;32.15;100847.53;10274406;28;20176;-60
2021/05/30 18:03:14;;;;;;;3.55;1.83;;;;;;;20.78;32.25;100845.72;10256377;28;20110;-58
2021/05/30 18:08:36;;;;;;;2.63;1.83;;;;;;;20.73;32.71;100848.13;10278960;28;20059;-59
2021/05/30 18:13:38;;;;;;;2.55;1.70;;;;;;;20.62;33.15;100851.16;10278940;28;20433;-59
2021/05/30 18:18:40;;;;;;;2.28;1.70;;;;;;;20.57;33.87;100854.38;10261697;28;21292;-59
2021/05/30 18:23:42;;;;;;;3.67;2.40;;;;;;;20.48;33.88;100840.03;10257368;28;20046;-59
2021/05/30 18:28:43;;;;;;;1.70;1.60;;;;;;;20.42;34.22;100840.75;10275981;28;20122;-59
2021/05/30 18:33:45;;;;;;;2.22;1.38;;;;;;;20.36;34.74;100841.44;10270444;28;20113;-59
2021/05/30 18:38:48;;;;;;;2.35;1.55;;;;;;;20.31;35.32;100843.81;10235286;28;20124;-59
2021/05/30 18:43:50;;;;;;;2.60;2.20;;;;;;;20.22;35.04;100844.84;10251156;28;20208;-59
2021/05/30 18:48:51;;;;;;;4.28;2.13;;;;;;;20.13;35.39;100849.41;10271600;28;21053;-60
2021/05/30 18:53:54;;;;;;;3.35;1.70;;;;;;;20.04;35.62;100845.91;10277554;28;20450;-59
2021/05/30 18:58:55;;;;;;;3.07;2.67;;;;;;;19.90;36.04;100852.00;10276141;28;20137;-58
2021/05/30 19:03:57;;;;;;;2.40;1.92;;;;;;;19.85;36.13;100854.38;10267257;28;20503;-58
2021/05/30 19:08:59;;;;;;;2.75;2.35;;;;;;;19.77;36.91;100855.16;10279858;28;20051;-60
2021/05/30 19:14:00;;;;;;;4.10;2.40;;;;;;;19.65;36.99;100854.69;10277395;28;22084;-59
2021/05/30 19:19:02;;;;;;;3.30;1.90;;;;;;;19.53;37.34;100850.59;10274626;28;20047;-59
2021/05/30 19:24:04;;;;;;;4.07;2.90;;;;;;;19.43;37.06;100850.78;10279013;28;20169;-60
2021/05/30 19:29:06;;;;;;;3.17;2.33;;;;;;;19.34;37.82;100855.31;10274477;28;20058;-59
2021/05/30 19:34:07;;;;;;;4.28;2.30;;;;;;;19.23;38.06;100866.41;10253026;28;20241;-59
2021/05/30 19:39:09;;;;;;;4.03;2.50;;;;;;;19.15;38.96;100864.56;10279710;28;20895;-59
2021/05/30 19:44:10;;;;;;;4.43;2.15;;;;;;;19.06;39.07;100869.06;10265224;28;20213;-60
2021/05/30 19:49:11;;;;;;;2.35;2.10;;;;;;;18.97;39.57;100871.94;10256497;28;20054;-59
2021/05/30 19:54:13;;;;;;;2.47;2.17;;;;;;;18.93;39.37;100866.03;10264667;28;20552;-58
2021/05/30 19:59:15;;;;;;;2.95;2.10;;;;;;;18.83;39.88;100867.97;10276201;28;20078;-58
2021/05/30 20:04:17;;;;;;;2.55;2.20;;;;;;;18.81;40.08;100880.75;10277735;28;20587;-57
2021/05/30 20:09:19;;;;;;;3.00;2.63;;;;;;;18.72;40.16;100880.75;10266687;28;20092;-58
2021/05/30 20:14:20;;;;;;;5.45;2.80;;;;;;;18.66;40.45;100876.00;10264253;28;20135;-57
2021/05/30 20:19:22;;;;;;;4.22;3.15;;;;;;;18.59;40.52;100877.63;10275381;28;20104;-56
2021/05/30 20:24:24;;;;;;;4.47;2.00;;;;;;;18.54;41.02;100874.59;10277974;28;20201;-59
2021/05/30 20:29:26;;;;;;;5.10;2.65;;;;;;;18.47;41.38;100887.84;10276489;28;20157;-59
2021/05/30 20:34:28;;;;;;;3.40;2.55;;;;;;;18.43;41.11;100886.47;10286091;28;20046;-58
2021/05/30 20:39:29;;;;;;;4.70;3.35;;;;;;;18.36;41.31;100880.88;10270371;28;20138;-58
2021/05/30 20:44:31;;;;;;;7.38;2.58;;;;;;;18.31;41.65;100887.75;10278654;28;20137;-58
2021/05/30 20:49:32;;;;;;;4.78;2.83;;;;;;;18.24;42.13;100884.84;10283312;28;20141;-59
2021/05/30 20:54:35;;;;;;;6.38;3.20;;;;;;;18.21;42.55;100885.19;10290327;28;20506;-59
2021/05/30 20:59:36;;;;;;;3.90;2.78;;;;;;;18.17;42.23;100881.09;10285402;28;20188;-57
2021/05/30 21:04:38;;;;;;;3.22;2.22;;;;;;;18.10;42.67;100877.34;10287234;28;20054;-59
2021/05/30 21:09:39;;;;;;;2.83;2.47;;;;;;;18.08;42.85;100890.13;10292116;28;20137;-59
2021/05/30 21:14:42;;;;;;;2.85;2.28;;;;;;;17.96;42.74;100890.38;10291789;28;20610;-58
2021/05/30 21:19:44;;;;;;;2.40;2.07;;;;;;;17.86;42.81;100884.19;10290749;28;20486;-58
2021/05/30 21:24:46;;;;;;;3.35;3.05;;;;;;;17.74;42.52;100877.38;10279928;28;20425;-58
2021/05/30 21:29:47;;;;;;;5.95;3.53;;;;;;;17.72;42.76;100882.06;10298057;28;20066;-59
2021/05/30 21:34:49;;;;;;;6.03;3.55;;;;;;;17.65;42.34;100876.44;10281491;28;20066;-61
2021/05/30 21:39:50;;;;;;;4.20;3.50;;;;;;;17.55;42.96;100881.91;10275047;28;20723;-60
2021/05/30 21:44:52;;;;;;;4.18;2.95;;;;;;;17.46;43.03;100880.16;10292681;28;20113;-61
2021/05/30 21:49:57;;;;;;;3.17;2.20;;;;;;;17.42;43.18;100878.75;10295590;28;20555;-60
2021/05/30 21:54:59;;;;;;;3.08;2.28;;;;;;;17.32;43.04;100886.88;10292658;28;20152;-59
2021/05/30 22:00:00;;;;;;;3.42;2.20;;;;;;;17.23;43.33;100888.63;10299782;28;20053;-61
2021/05/30 22:05:02;;;;;;;3.22;2.67;;;;;;;17.14;43.30;100885.03;10279765;28;20137;-60
2021/05/30 22:10:04;;;;;;;3.47;2.00;;;;;;;17.12;43.38;100891.56;10297090;28;20121;-60
2021/05/30 22:15:23;;;;;;;2.90;2.13;;;;;;;17.04;43.70;100889.63;10278639;28;20642;-61
2021/05/30 22:20:25;;;;;;;3.03;2.13;;;;;;;16.96;43.56;100882.31;10296157;28;20562;-60
2021/05/30 22:25:26;;;;;;;3.88;2.72;;;;;;;16.92;43.71;100888.97;10299835;28;20108;-61
2021/05/30 22:30:28;;;;;;;2.78;2.40;;;;;;;16.85;43.78;100895.91;10296085;28;20707;-61
2021/05/30 22:35:31;;;;;;;3.72;2.75;;;;;;;16.79;44.13;100889.28;10288426;28;23209;-62
2021/05/30 22:40:32;;;;;;;2.63;2.15;;;;;;;16.74;44.05;100898.81;10289042;28;20133;-60
2021/05/30 22:45:34;;;;;;;3.38;2.00;;;;;;;16.70;44.71;100894.72;10290827;28;20102;-60
2021/05/30 22:50:35;;;;;;;2.53;2.33;;;;;;;16.61;44.63;100883.00;10294251;28;20125;-60
2021/05/30 22:55:36;;;;;;;3.55;2.47;;;;;;;16.56;44.87;100886.13;10296203;28;20073;-61
2021/05/30 23:00:38;;;;;;;2.95;2.35;;;;;;;16.53;44.90;100886.44;10284360;28;20140;-60
2021/05/30 23:05:39;;;;;;;3.03;2.58;;;;;;;16.50;45.39;100881.34;10294760;28;20049;-61
2021/05/30 23:10:44;;;;;;;2.88;2.38;;;;;;;16.43;45.65;100874.84;10291015;28;20092;-61
2021/05/30 23:22:34;;;;;;;3.53;2.70;;;;;;;16.27;46.27;100872.78;10279243;28;20392;-60